Time;durP1;ratioP1;P1;durP2;ratioP2;P2;SDS_P1;SDS_P2;PMS_P1;PMS_P2;Temp;Humidity;BMP_temperature;BMP_pressure;BME280_temperature;BME280_humidity;BME280_pressure;Samples;Min_cycle;Max_cycle;Signal;HPM_P1;HPM_P2
2021/05/25 00:02:17;;;;;;;5.13;1.47;;;11.00;99.90;;;;;;5052980;28;20459;-79
2021/05/25 00:04:51;;;;;;;1.93;1.70;;;11.00;99.90;;;;;;5050350;28;20422;-80
2021/05/25 00:07:17;;;;;;;5.40;1.60;;;10.80;99.90;;;;;;5034230;28;20415;-79
2021/05/25 00:09:43;;;;;;;1.40;1.30;;;10.80;99.90;;;;;;5033527;28;20449;-79
2021/05/25 00:12:16;;;;;;;1.30;1.20;;;10.70;99.90;;;;;;5034083;28;20550;-79
2021/05/25 00:14:45;;;;;;;2.83;1.93;;;10.60;99.90;;;;;;5036383;28;20947;-79
2021/05/25 00:17:11;;;;;;;2.70;1.50;;;10.70;99.90;;;;;;5044177;28;20459;-80
2021/05/25 00:19:37;;;;;;;2.60;1.40;;;10.60;99.90;;;;;;5034542;28;20439;-79
2021/05/25 00:22:05;;;;;;;1.87;1.60;;;10.60;99.90;;;;;;5053687;28;20434;-80
2021/05/25 00:24:36;;;;;;;4.43;1.70;;;10.40;99.90;;;;;;5052759;28;20796;-79
2021/05/25 00:27:06;;;;;;;2.17;1.77;;;10.30;99.90;;;;;;5053326;28;20440;-79
2021/05/25 00:29:35;;;;;;;1.40;1.30;;;10.30;99.90;;;;;;5052864;28;20773;-80
2021/05/25 00:32:03;;;;;;;1.60;1.50;;;10.20;99.90;;;;;;5053542;28;20550;-80
2021/05/25 00:34:31;;;;;;;1.73;1.50;;;10.20;99.90;;;;;;5052628;28;20429;-80
2021/05/25 00:36:57;;;;;;;3.10;1.30;;;10.10;99.90;;;;;;5048356;28;20786;-80
2021/05/25 00:39:25;;;;;;;1.57;1.43;;;10.30;99.90;;;;;;5051905;28;20429;-80
2021/05/25 00:41:54;;;;;;;1.90;1.37;;;10.30;99.90;;;;;;5032647;28;20458;-79
2021/05/25 00:44:23;;;;;;;2.40;1.70;;;10.30;99.90;;;;;;5047384;28;20499;-79
2021/05/25 00:46:52;;;;;;;2.17;1.70;;;10.20;99.90;;;;;;5052989;28;20434;-79
2021/05/25 00:49:23;;;;;;;3.83;1.60;;;10.20;99.90;;;;;;5041724;28;20462;-79
2021/05/25 00:51:57;;;;;;;1.53;1.43;;;10.20;99.90;;;;;;5052566;28;20536;-80
2021/05/25 00:54:26;;;;;;;1.83;1.43;;;10.20;99.90;;;;;;5036068;28;20986;-79
2021/05/25 00:56:52;;;;;;;2.77;1.60;;;10.30;99.90;;;;;;5043965;28;20435;-80
2021/05/25 00:59:18;;;;;;;2.23;1.40;;;10.40;99.90;;;;;;5032608;28;20503;-79
2021/05/25 01:01:47;;;;;;;1.80;1.50;;;10.50;99.90;;;;;;5033478;28;20496;-80
2021/05/25 01:04:15;;;;;;;1.80;1.70;;;10.50;99.90;;;;;;5041041;28;20783;-80
2021/05/25 01:06:41;;;;;;;1.90;1.50;;;10.50;99.90;;;;;;5036013;28;20426;-79
2021/05/25 01:09:16;;;;;;;1.47;1.37;;;10.50;99.90;;;;;;5045562;28;20931;-79
2021/05/25 01:11:43;;;;;;;1.47;1.37;;;10.40;99.90;;;;;;5039701;28;20478;-79
2021/05/25 01:14:12;;;;;;;2.70;1.83;;;10.50;99.90;;;;;;5052410;28;20488;-79
2021/05/25 01:16:38;;;;;;;1.63;1.53;;;10.50;99.90;;;;;;5047128;28;20469;-80
2021/05/25 01:19:06;;;;;;;2.40;1.30;;;10.40;99.90;;;;;;5032791;28;20420;-80
2021/05/25 01:21:37;;;;;;;1.73;1.27;;;10.40;99.90;;;;;;5050521;28;20434;-80
2021/05/25 01:24:03;;;;;;;2.30;1.50;;;10.40;99.90;;;;;;5042473;28;20441;-80
2021/05/25 01:26:32;;;;;;;1.70;1.53;;;10.40;99.90;;;;;;5038371;28;20436;-79
2021/05/25 01:29:01;;;;;;;3.00;1.40;;;10.30;99.90;;;;;;5032605;28;20500;-80
2021/05/25 01:31:27;;;;;;;2.60;1.60;;;10.40;99.90;;;;;;5015738;28;20576;-79
2021/05/25 01:33:52;;;;;;;2.37;1.70;;;10.20;99.90;;;;;;5033097;28;20419;-80
2021/05/25 01:36:19;;;;;;;1.67;1.50;;;10.20;99.90;;;;;;5043801;28;20421;-81
2021/05/25 01:38:52;;;;;;;1.90;1.60;;;10.20;99.90;;;;;;5053248;28;20441;-79
2021/05/25 01:41:23;;;;;;;1.50;1.40;;;10.10;99.90;;;;;;5051973;28;20457;-80
2021/05/25 01:43:58;;;;;;;1.47;1.37;;;10.00;99.90;;;;;;5036172;28;20434;-80
2021/05/25 01:46:26;;;;;;;1.70;1.53;;;10.00;99.90;;;;;;5033351;28;20452;-80
2021/05/25 01:48:55;;;;;;;2.77;1.30;;;10.00;99.90;;;;;;5029973;28;20476;-79
2021/05/25 01:51:25;;;;;;;2.00;1.20;;;9.90;99.90;;;;;;5045275;28;20537;-79
2021/05/25 01:53:51;;;;;;;4.03;1.40;;;9.90;99.90;;;;;;5026727;28;20422;-79
2021/05/25 01:56:20;;;;;;;2.30;1.50;;;9.80;99.90;;;;;;5046654;28;20441;-80
2021/05/25 01:58:46;;;;;;;1.63;1.40;;;9.80;99.90;;;;;;5036330;28;20452;-80
2021/05/25 02:01:13;;;;;;;1.50;1.40;;;9.70;99.90;;;;;;5036817;28;20767;-79
2021/05/25 02:03:42;;;;;;;5.90;1.50;;;9.70;99.90;;;;;;5040298;28;20500;-79
2021/05/25 02:06:10;;;;;;;2.10;1.90;;;9.70;99.90;;;;;;5056276;28;20473;-80
2021/05/25 02:08:37;;;;;;;2.03;1.60;;;9.70;99.90;;;;;;5055684;28;20516;-80
2021/05/25 02:11:04;;;;;;;2.20;1.53;;;9.70;99.90;;;;;;5039688;28;20463;-80
2021/05/25 02:13:33;;;;;;;1.30;1.13;;;9.60;99.90;;;;;;5037977;28;20423;-80
2021/05/25 02:16:04;;;;;;;1.30;1.20;;;9.60;99.90;;;;;;5055521;28;20425;-79
2021/05/25 02:18:38;;;;;;;1.63;1.40;;;9.60;99.90;;;;;;5054580;28;20446;-79
2021/05/25 02:21:07;;;;;;;2.10;1.27;;;9.70;99.90;;;;;;5038470;28;20474;-80
2021/05/25 02:23:36;;;;;;;2.33;1.53;;;9.70;99.90;;;;;;5043046;28;20431;-80
2021/05/25 02:26:04;;;;;;;3.93;1.67;;;9.70;99.90;;;;;;5035894;28;20800;-79
2021/05/25 02:28:33;;;;;;;4.37;3.73;;;9.70;99.90;;;;;;5047321;28;20426;-79
2021/05/25 02:31:05;;;;;;;2.73;1.33;;;9.60;99.90;;;;;;5055105;28;20455;-79
2021/05/25 02:33:32;;;;;;;1.77;1.33;;;9.60;99.90;;;;;;5044872;28;20430;-80
2021/05/25 02:35:59;;;;;;;2.10;1.53;;;9.60;99.90;;;;;;5035789;28;20897;-79
2021/05/25 02:38:29;;;;;;;1.53;1.30;;;9.60;99.90;;;;;;5045292;28;20426;-80
2021/05/25 02:40:58;;;;;;;1.60;1.43;;;9.60;99.90;;;;;;5054865;28;20457;-79
2021/05/25 02:43:28;;;;;;;1.30;1.20;;;9.60;99.90;;;;;;5055419;28;20486;-79
2021/05/25 02:45:58;;;;;;;3.73;1.20;;;9.60;99.90;;;;;;5055591;28;20419;-79
2021/05/25 02:48:25;;;;;;;1.63;1.40;;;9.60;99.90;;;;;;5043519;28;20438;-79
2021/05/25 02:50:54;;;;;;;1.60;1.47;;;9.60;99.90;;;;;;5048741;28;20933;-79
2021/05/25 02:53:22;;;;;;;2.57;1.40;;;9.70;99.90;;;;;;5054971;28;20432;-80
2021/05/25 02:55:48;;;;;;;2.00;1.40;;;9.60;99.90;;;;;;5055468;28;20430;-80
2021/05/25 02:58:17;;;;;;;1.67;1.57;;;9.60;99.90;;;;;;5054291;28;20440;-79
2021/05/25 03:00:45;;;;;;;1.40;1.30;;;9.60;99.90;;;;;;5053322;28;20846;-79
2021/05/25 03:03:14;;;;;;;1.50;1.40;;;9.60;99.90;;;;;;5037083;28;20587;-80
2021/05/25 03:05:45;;;;;;;3.37;1.83;;;9.70;99.90;;;;;;5040642;28;20422;-79
2021/05/25 03:08:15;;;;;;;4.53;1.50;;;9.70;99.90;;;;;;5044509;28;20444;-80
2021/05/25 03:10:46;;;;;;;2.37;1.60;;;9.70;99.90;;;;;;5044553;28;20477;-80
2021/05/25 03:13:14;;;;;;;2.10;1.57;;;9.80;99.90;;;;;;5054515;28;20450;-80
2021/05/25 03:15:53;;;;;;;3.10;1.57;;;9.90;99.90;;;;;;5053970;28;20506;-80
2021/05/25 03:18:19;;;;;;;2.03;1.30;;;9.90;99.90;;;;;;5053555;28;20514;-79
2021/05/25 03:20:49;;;;;;;4.43;1.40;;;9.90;99.90;;;;;;5049879;28;20419;-80
2021/05/25 03:23:16;;;;;;;1.60;1.50;;;9.90;99.90;;;;;;5054196;28;20461;-79
2021/05/25 03:25:44;;;;;;;2.50;1.40;;;9.90;99.90;;;;;;5053763;28;20429;-80
2021/05/25 03:28:10;;;;;;;1.70;1.60;;;10.00;99.90;;;;;;5054428;28;20509;-80
2021/05/25 03:30:38;;;;;;;1.63;1.53;;;10.00;99.90;;;;;;5037495;28;20422;-80
2021/05/25 03:33:04;;;;;;;1.90;1.60;;;10.00;99.90;;;;;;5054039;28;20456;-80
2021/05/25 03:35:35;;;;;;;1.50;1.40;;;10.00;99.90;;;;;;5054606;28;20433;-80
2021/05/25 03:38:02;;;;;;;2.70;1.53;;;10.10;99.90;;;;;;5046398;28;20843;-79
2021/05/25 03:40:28;;;;;;;3.37;1.60;;;10.10;99.90;;;;;;5033582;28;20445;-80
2021/05/25 03:42:55;;;;;;;2.70;2.07;;;10.00;99.90;;;;;;5049122;28;20426;-79
2021/05/25 03:45:27;;;;;;;1.70;1.60;;;10.00;99.90;;;;;;5053657;28;20560;-80
2021/05/25 03:47:55;;;;;;;1.60;1.50;;;9.90;99.90;;;;;;5036862;28;21110;-79
2021/05/25 03:50:24;;;;;;;1.93;1.70;;;9.90;99.90;;;;;;5035025;28;20439;-80
2021/05/25 03:52:55;;;;;;;2.63;1.57;;;10.00;99.90;;;;;;5038199;28;20564;-80
2021/05/25 04:00:42;;;;;;;2.80;1.50;;;10.00;99.90;;;;;;5054188;28;20433;-80
2021/05/25 04:03:10;;;;;;;1.50;1.40;;;10.00;99.90;;;;;;5027939;28;20633;-80
2021/05/25 04:05:37;;;;;;;1.47;1.40;;;10.00;99.90;;;;;;5033325;28;20423;-80
2021/05/25 04:08:05;;;;;;;1.50;1.40;;;9.90;99.90;;;;;;5033904;28;20804;-80
2021/05/25 04:10:34;;;;;;;1.60;1.50;;;9.90;99.90;;;;;;5034305;28;20485;-80
2021/05/25 04:13:05;;;;;;;1.30;1.30;;;9.90;99.90;;;;;;5043407;28;20433;-80
2021/05/25 04:15:34;;;;;;;1.60;1.50;;;9.90;99.90;;;;;;5052670;28;20453;-79
2021/05/25 04:18:01;;;;;;;1.67;1.43;;;9.90;99.90;;;;;;5053807;28;20424;-80
2021/05/25 04:20:27;;;;;;;1.60;1.50;;;9.90;99.90;;;;;;5043708;28;20853;-81
2021/05/25 04:22:53;;;;;;;3.23;1.37;;;10.00;99.90;;;;;;5045165;28;20521;-80
2021/05/25 04:25:19;;;;;;;1.43;1.33;;;10.00;99.90;;;;;;5032831;28;20542;-79
2021/05/25 04:27:45;;;;;;;1.83;1.47;;;10.00;99.90;;;;;;5034069;28;20426;-81
2021/05/25 04:30:14;;;;;;;1.50;1.40;;;10.00;99.90;;;;;;5016365;28;20489;-80
2021/05/25 04:32:44;;;;;;;1.90;1.70;;;10.00;99.90;;;;;;5035072;28;20454;-79
2021/05/25 04:35:11;;;;;;;2.90;1.60;;;10.10;99.90;;;;;;5034119;28;20500;-79
2021/05/25 04:37:41;;;;;;;2.53;1.50;;;10.10;99.90;;;;;;5052921;28;20422;-80
2021/05/25 04:40:10;;;;;;;2.20;1.80;;;10.10;99.90;;;;;;5052219;28;20427;-79
2021/05/25 04:42:36;;;;;;;1.90;1.70;;;10.00;99.90;;;;;;5032821;28;20450;-81
2021/05/25 04:45:03;;;;;;;2.83;1.80;;;10.10;99.90;;;;;;5033590;28;20441;-80
2021/05/25 04:47:31;;;;;;;1.70;1.60;;;10.10;99.90;;;;;;5016519;28;20431;-80
2021/05/25 04:49:57;;;;;;;2.33;2.03;;;10.20;99.90;;;;;;5034757;28;20508;-80
2021/05/25 04:52:26;;;;;;;1.50;1.40;;;10.20;99.90;;;;;;5052820;28;20473;-80
2021/05/25 04:54:51;;;;;;;4.20;1.53;;;10.20;99.90;;;;;;5037481;28;20429;-79
2021/05/25 04:57:18;;;;;;;2.93;1.77;;;10.20;99.90;;;;;;5022191;28;20922;-79
2021/05/25 04:59:46;;;;;;;1.67;1.57;;;10.30;99.90;;;;;;5040292;28;20433;-80
2021/05/25 05:02:14;;;;;;;2.00;1.50;;;10.40;99.90;;;;;;5042325;28;20462;-79
2021/05/25 05:04:44;;;;;;;1.43;1.33;;;10.50;99.90;;;;;;5052080;28;20475;-79
2021/05/25 05:07:11;;;;;;;7.93;1.60;;;10.50;99.90;;;;;;5052776;28;20521;-79
2021/05/25 05:09:39;;;;;;;1.60;1.50;;;10.50;99.90;;;;;;5052798;28;20433;-79
2021/05/25 05:12:08;;;;;;;2.03;1.50;;;10.50;99.90;;;;;;5052544;28;20462;-79
2021/05/25 05:14:36;;;;;;;1.50;1.40;;;10.50;99.90;;;;;;5052695;28;20423;-78
2021/05/25 05:17:04;;;;;;;2.00;1.50;;;10.40;99.90;;;;;;5051806;28;20446;-79
2021/05/25 05:19:30;;;;;;;1.93;1.50;;;10.40;99.90;;;;;;5053021;28;20453;-78
2021/05/25 05:21:56;;;;;;;1.63;1.40;;;10.40;99.90;;;;;;5047091;28;20887;-79
2021/05/25 05:24:25;;;;;;;2.50;1.43;;;10.40;99.90;;;;;;5033127;28;20451;-79
2021/05/25 05:26:55;;;;;;;3.00;1.43;;;10.30;99.90;;;;;;5030492;28;20484;-79
2021/05/25 05:29:21;;;;;;;2.30;1.60;;;10.20;99.90;;;;;;5052394;28;20499;-79
2021/05/25 05:31:49;;;;;;;3.40;1.50;;;10.20;99.90;;;;;;5043573;28;20495;-78
2021/05/25 05:34:15;;;;;;;2.50;1.40;;;10.10;99.90;;;;;;5056216;28;20433;-78
2021/05/25 05:36:41;;;;;;;1.67;1.40;;;10.10;99.90;;;;;;5056046;28;20503;-78
2021/05/25 05:39:07;;;;;;;6.00;2.27;;;10.10;99.90;;;;;;5055909;28;20457;-78
2021/05/25 05:41:33;;;;;;;2.60;1.63;;;10.10;99.90;;;;;;5051403;28;20528;-79
2021/05/25 05:43:59;;;;;;;3.53;2.13;;;10.00;99.90;;;;;;5056188;28;20418;-78
2021/05/25 05:46:25;;;;;;;3.07;1.70;;;10.00;99.90;;;;;;5020487;28;20439;-79
2021/05/25 05:48:52;;;;;;;3.30;1.50;;;9.90;99.90;;;;;;5036676;28;20429;-78
2021/05/25 05:51:20;;;;;;;2.17;1.67;;;9.90;99.90;;;;;;5036734;28;20807;-79
2021/05/25 05:53:49;;;;;;;2.63;1.50;;;9.90;99.90;;;;;;5036887;28;20423;-78
2021/05/25 05:56:20;;;;;;;3.43;1.50;;;9.90;99.90;;;;;;5035783;28;20427;-78
2021/05/25 05:58:52;;;;;;;3.00;2.07;;;9.90;99.90;;;;;;5032798;28;20453;-78
2021/05/25 06:01:18;;;;;;;2.67;1.90;;;9.90;99.90;;;;;;5046932;28;20518;-78
2021/05/25 06:03:48;;;;;;;2.53;1.57;;;9.90;99.90;;;;;;5035309;28;20487;-78
2021/05/25 06:06:14;;;;;;;2.43;1.90;;;10.00;99.90;;;;;;5003078;28;20435;-78
2021/05/25 06:08:43;;;;;;;4.60;1.93;;;10.10;99.90;;;;;;5036678;28;20451;-79
2021/05/25 06:11:14;;;;;;;1.50;1.30;;;10.10;99.90;;;;;;5053392;28;20525;-78
2021/05/25 06:13:43;;;;;;;2.13;1.70;;;10.10;99.90;;;;;;5056578;28;20493;-79
2021/05/25 06:16:14;;;;;;;2.87;1.40;;;10.00;99.90;;;;;;5040456;28;20449;-78
2021/05/25 06:18:40;;;;;;;2.50;1.40;;;10.00;99.90;;;;;;5035140;28;20419;-78
2021/05/25 06:21:08;;;;;;;1.70;1.60;;;10.00;99.90;;;;;;5047709;28;20434;-78
2021/05/25 06:23:36;;;;;;;2.33;1.60;;;10.00;99.90;;;;;;5050787;28;20512;-78
2021/05/25 06:26:03;;;;;;;3.80;1.50;;;10.00;99.90;;;;;;5046862;28;20450;-78
2021/05/25 06:28:30;;;;;;;4.03;1.30;;;10.00;99.90;;;;;;5050711;28;20433;-77
2021/05/25 06:30:56;;;;;;;1.60;1.27;;;9.90;99.90;;;;;;5046514;28;20982;-76
2021/05/25 06:33:22;;;;;;;1.40;1.30;;;9.90;99.90;;;;;;5053829;28;20470;-76
2021/05/25 06:35:51;;;;;;;2.67;1.47;;;9.70;99.90;;;;;;5053796;28;20480;-77
2021/05/25 06:38:19;;;;;;;1.80;1.40;;;9.60;99.90;;;;;;5055119;28;20422;-76
2021/05/25 06:40:45;;;;;;;2.50;1.07;;;9.50;99.90;;;;;;5054668;28;20434;-77
2021/05/25 06:43:14;;;;;;;1.77;1.10;;;9.40;99.90;;;;;;5053286;28;20959;-77
2021/05/25 06:45:40;;;;;;;2.07;1.43;;;9.40;99.90;;;;;;5053632;28;20468;-77
2021/05/25 06:48:06;;;;;;;1.70;1.33;;;9.40;99.90;;;;;;5050244;28;20894;-77
2021/05/25 06:50:32;;;;;;;3.00;1.60;;;9.50;99.90;;;;;;5048146;28;20456;-77
2021/05/25 06:52:59;;;;;;;3.27;1.50;;;9.60;99.90;;;;;;5051728;28;20489;-78
2021/05/25 06:55:25;;;;;;;2.90;1.70;;;9.60;99.90;;;;;;5045441;28;20427;-77
2021/05/25 06:57:51;;;;;;;2.23;1.20;;;9.60;99.90;;;;;;5052871;28;20834;-79
2021/05/25 07:00:18;;;;;;;1.40;1.20;;;9.60;99.90;;;;;;5052321;28;20426;-77
2021/05/25 07:02:44;;;;;;;1.30;1.20;;;9.60;99.90;;;;;;5053067;28;20817;-79
2021/05/25 07:05:11;;;;;;;3.03;1.60;;;9.60;99.90;;;;;;5050528;28;20810;-79
2021/05/25 07:07:37;;;;;;;8.13;1.60;;;9.50;99.90;;;;;;5053789;28;20553;-79
2021/05/25 07:10:06;;;;;;;2.77;1.20;;;9.50;99.90;;;;;;5053122;28;20498;-79
2021/05/25 07:12:33;;;;;;;4.50;1.40;;;9.50;99.90;;;;;;5045451;28;20846;-79
2021/05/25 07:14:59;;;;;;;2.27;1.40;;;9.50;99.90;;;;;;5046719;28;20441;-80
2021/05/25 07:17:25;;;;;;;3.00;1.50;;;9.50;99.90;;;;;;5052380;28;20440;-80
2021/05/25 07:19:53;;;;;;;2.70;1.73;;;9.40;99.90;;;;;;5035562;28;20437;-78
2021/05/25 07:22:34;;;;;;;1.47;1.37;;;9.40;99.90;;;;;;5053260;28;20440;-79
2021/05/25 07:25:05;;;;;;;1.70;1.50;;;9.30;99.90;;;;;;5053723;28;20820;-79
2021/05/25 07:27:34;;;;;;;2.10;1.90;;;9.20;99.90;;;;;;5053223;28;20437;-79
2021/05/25 07:30:00;;;;;;;2.00;1.60;;;9.20;99.90;;;;;;5052504;28;20433;-79
2021/05/25 07:32:26;;;;;;;2.70;1.87;;;9.20;99.90;;;;;;5035574;28;20806;-79
2021/05/25 07:34:52;;;;;;;2.10;1.90;;;9.30;99.90;;;;;;5053401;28;20424;-76
2021/05/25 07:37:17;;;;;;;2.83;1.70;;;9.50;99.90;;;;;;5052890;28;20457;-78
2021/05/25 07:39:46;;;;;;;2.10;1.60;;;9.60;99.90;;;;;;5036245;28;20438;-78
2021/05/25 07:42:14;;;;;;;2.10;1.80;;;9.70;99.90;;;;;;5051390;28;20521;-78
2021/05/25 07:44:40;;;;;;;1.83;1.73;;;9.80;99.90;;;;;;5051540;28;20431;-78
2021/05/25 07:47:06;;;;;;;3.33;1.70;;;9.90;99.90;;;;;;5053249;28;20461;-78
2021/05/25 07:49:35;;;;;;;2.00;1.80;;;10.00;99.90;;;;;;5045576;28;20453;-78
2021/05/25 07:52:04;;;;;;;1.77;1.50;;;10.00;99.90;;;;;;5049225;28;20473;-78
2021/05/25 07:54:33;;;;;;;1.90;1.63;;;10.10;99.90;;;;;;5051628;28;20431;-77
2021/05/25 07:57:01;;;;;;;2.37;2.17;;;10.20;99.90;;;;;;5046256;28;20527;-78
2021/05/25 07:59:27;;;;;;;1.60;1.50;;;10.40;99.90;;;;;;5050037;28;20437;-78
2021/05/25 08:01:54;;;;;;;1.67;1.57;;;10.40;99.90;;;;;;5049789;28;20434;-77
2021/05/25 08:04:20;;;;;;;2.97;2.37;;;10.40;99.90;;;;;;5052769;28;20787;-77
2021/05/25 08:06:46;;;;;;;2.10;1.90;;;10.50;99.90;;;;;;5046865;28;20437;-77
2021/05/25 08:09:17;;;;;;;4.10;2.10;;;10.40;99.90;;;;;;5051575;28;20896;-77
2021/05/25 08:11:43;;;;;;;3.90;2.00;;;10.50;99.90;;;;;;5051729;28;20563;-78
2021/05/25 08:14:12;;;;;;;2.80;2.30;;;10.60;99.90;;;;;;5051565;28;20426;-78
2021/05/25 08:16:41;;;;;;;2.47;2.30;;;10.60;99.90;;;;;;5031937;28;20449;-77
2021/05/25 08:21:39;;;;;;;3.20;2.70;;;10.60;99.90;;;;;;5052307;28;20465;-79
2021/05/25 08:24:09;;;;;;;2.27;2.10;;;10.60;99.90;;;;;;5051852;28;20896;-78
2021/05/25 08:26:38;;;;;;;3.10;2.70;;;10.60;99.90;;;;;;5028604;28;20525;-78
2021/05/25 08:29:04;;;;;;;3.03;2.83;;;10.60;99.90;;;;;;5052331;28;20442;-78
2021/05/25 08:31:30;;;;;;;2.80;2.60;;;10.50;99.90;;;;;;5049110;28;20523;-78
2021/05/25 08:33:56;;;;;;;2.97;2.23;;;10.50;99.90;;;;;;5052863;28;20426;-78
2021/05/25 08:36:23;;;;;;;3.80;2.87;;;10.50;99.90;;;;;;5051524;28;20437;-77
2021/05/25 08:38:49;;;;;;;2.67;2.47;;;10.60;99.90;;;;;;5052026;28;20529;-77
2021/05/25 08:41:17;;;;;;;3.03;2.70;;;10.70;99.90;;;;;;5047027;28;20442;-78
2021/05/25 08:43:43;;;;;;;3.30;3.10;;;10.80;99.90;;;;;;5035143;28;20449;-77
2021/05/25 08:46:11;;;;;;;3.27;2.97;;;10.80;99.90;;;;;;5051055;28;20466;-78
2021/05/25 08:48:44;;;;;;;3.23;3.03;;;10.90;99.90;;;;;;5052589;28;20484;-78
2021/05/25 08:51:10;;;;;;;3.43;3.13;;;11.10;99.90;;;;;;5030875;28;20956;-78
2021/05/25 08:53:36;;;;;;;4.53;3.97;;;11.20;99.90;;;;;;5051797;28;21065;-78
2021/05/25 08:56:07;;;;;;;6.10;3.60;;;11.30;99.90;;;;;;5045674;28;20951;-78
2021/05/25 08:58:33;;;;;;;4.17;3.87;;;11.40;99.90;;;;;;5051539;28;20439;-77
2021/05/25 09:01:02;;;;;;;4.57;4.17;;;11.40;99.90;;;;;;5051936;28;20927;-78
2021/05/25 09:03:30;;;;;;;4.47;4.07;;;11.30;99.90;;;;;;5033293;28;20462;-77
2021/05/25 09:06:07;;;;;;;4.53;3.97;;;11.30;99.90;;;;;;5051400;28;20441;-77
2021/05/25 09:08:35;;;;;;;4.73;4.40;;;11.20;99.90;;;;;;5052810;28;20453;-77
2021/05/25 09:11:08;;;;;;;4.53;4.23;;;11.20;99.90;;;;;;5038048;28;20462;-79
2021/05/25 09:13:35;;;;;;;5.87;4.33;;;11.20;99.90;;;;;;5035338;28;20442;-78
2021/05/25 09:16:03;;;;;;;4.37;4.07;;;11.30;99.90;;;;;;5043865;28;20454;-78
2021/05/25 09:18:31;;;;;;;3.40;3.10;;;11.50;99.90;;;;;;5054052;28;20438;-79
2021/05/25 09:21:00;;;;;;;4.03;3.60;;;11.90;99.90;;;;;;5031449;28;20498;-80
2021/05/25 09:23:33;;;;;;;4.67;3.90;;;12.20;99.90;;;;;;5052494;28;20833;-79
2021/05/25 09:26:07;;;;;;;3.67;3.37;;;12.40;99.90;;;;;;5053400;28;20470;-78
2021/05/25 09:28:36;;;;;;;3.93;3.63;;;12.60;99.90;;;;;;5049059;28;20423;-79
2021/05/25 09:31:05;;;;;;;3.57;3.27;;;12.60;99.90;;;;;;5054441;28;20497;-78
2021/05/25 09:33:34;;;;;;;4.00;3.70;;;12.60;99.90;;;;;;5054328;28;20902;-79
2021/05/25 09:36:12;;;;;;;4.53;4.13;;;12.60;99.90;;;;;;5054952;28;20438;-78
2021/05/25 09:38:39;;;;;;;4.20;3.50;;;12.60;99.90;;;;;;5052625;28;20433;-80
2021/05/25 09:41:05;;;;;;;4.00;3.63;;;12.80;99.90;;;;;;5050447;28;20443;-79
2021/05/25 09:43:33;;;;;;;3.40;3.10;;;13.10;99.90;;;;;;5046765;28;20702;-79
2021/05/25 09:46:10;;;;;;;3.37;3.07;;;13.30;99.90;;;;;;5055692;28;20753;-79
2021/05/25 09:48:45;;;;;;;4.67;3.40;;;13.80;99.90;;;;;;5055814;28;20707;-78
2021/05/25 09:51:22;;;;;;;4.93;3.23;;;14.20;99.90;;;;;;5043463;28;20534;-79
2021/05/25 09:53:51;;;;;;;4.47;4.07;;;14.30;99.90;;;;;;5018758;28;20468;-81
2021/05/25 09:56:30;;;;;;;5.70;4.70;;;14.20;99.90;;;;;;5036875;28;20499;-77
2021/05/25 09:59:00;;;;;;;4.97;3.67;;;13.60;99.90;;;;;;5054417;28;20745;-77
2021/05/25 10:01:37;;;;;;;3.43;3.00;;;12.70;99.90;;;;;;5053487;28;20861;-77
2021/05/25 10:04:13;;;;;;;2.80;2.70;;;12.10;99.90;;;;;;5047239;28;20469;-77
2021/05/25 10:06:44;;;;;;;5.33;2.77;;;11.70;99.90;;;;;;5054458;28;20469;-78
2021/05/25 10:09:11;;;;;;;2.67;2.50;;;11.30;99.90;;;;;;5053769;28;20438;-78
2021/05/25 10:11:42;;;;;;;3.30;3.10;;;11.10;99.90;;;;;;5054847;28;20558;-78
2021/05/25 10:14:12;;;;;;;4.57;4.17;;;11.00;99.90;;;;;;5055068;28;20457;-78
2021/05/25 10:16:42;;;;;;;5.00;4.50;;;11.00;99.90;;;;;;5053330;28;20480;-78
2021/05/25 10:21:37;;;;;;;5.10;4.40;;;11.40;99.90;;;;;;5036657;28;20870;-77
2021/05/25 10:24:05;;;;;;;5.57;5.00;;;11.50;99.90;;;;;;5055063;28;20464;-77
2021/05/25 10:26:37;;;;;;;9.67;5.50;;;11.80;99.90;;;;;;5035524;28;20813;-77
2021/05/25 10:29:06;;;;;;;5.90;4.83;;;12.00;99.90;;;;;;5054121;28;20432;-77
2021/05/25 10:31:39;;;;;;;5.87;5.27;;;12.30;99.90;;;;;;5047624;28;20458;-77
2021/05/25 10:34:11;;;;;;;4.50;4.10;;;12.60;99.90;;;;;;5052323;28;20421;-77
2021/05/25 10:36:44;;;;;;;4.80;4.33;;;12.80;99.90;;;;;;5047893;28;20742;-78
2021/05/25 10:39:32;;;;;;;6.10;4.17;;;12.80;99.90;;;;;;5046553;28;20431;-78
2021/05/25 10:42:30;;;;;;;6.50;5.80;;;12.60;99.90;;;;;;5053702;28;21008;-78
2021/05/25 10:44:59;;;;;;;6.40;5.80;;;12.40;99.90;;;;;;5050333;28;20438;-77
2021/05/25 10:47:34;;;;;;;7.43;6.67;;;12.20;99.90;;;;;;5037194;28;20438;-78
2021/05/25 10:50:46;;;;;;;6.70;5.80;;;12.20;99.90;;;;;;5037595;28;20448;-77
2021/05/25 10:52:59;;;;;;;6.70;5.87;;;12.10;99.90;;;;;;5032382;28;20829;-82
2021/05/25 10:55:30;;;;;;;5.87;5.27;;;11.90;99.90;;;;;;5033608;28;21094;-78
2021/05/25 10:57:57;;;;;;;8.50;4.77;;;11.30;99.90;;;;;;5053187;28;20784;-78
2021/05/25 11:00:44;;;;;;;6.30;5.57;;;10.90;99.90;;;;;;5037227;28;20434;-78
2021/05/25 11:03:29;;;;;;;5.07;4.67;;;10.50;99.90;;;;;;5050647;28;20469;-79
2021/05/25 11:06:02;;;;;;;10.30;5.37;;;10.20;99.90;;;;;;5019618;28;20451;-77
2021/05/25 11:08:37;;;;;;;4.83;4.40;;;10.00;99.90;;;;;;5052917;28;20443;-78
2021/05/25 11:11:08;;;;;;;6.90;5.03;;;10.00;99.90;;;;;;5053963;28;20817;-77
2021/05/25 11:13:51;;;;;;;5.77;4.33;;;10.10;99.90;;;;;;5052850;28;20785;-79
2021/05/25 11:16:31;;;;;;;5.40;4.33;;;10.20;99.90;;;;;;5011914;28;21271;-78
2021/05/25 11:24:34;;;;;;;4.73;3.90;;;10.30;99.90;;;;;;5036248;28;20449;-80
2021/05/25 11:27:10;;;;;;;6.03;4.40;;;10.40;99.90;;;;;;5045511;28;20780;-80
2021/05/25 11:29:56;;;;;;;5.03;4.63;;;10.50;99.90;;;;;;5052065;28;20431;-78
2021/05/25 11:32:28;;;;;;;5.57;4.93;;;10.60;99.90;;;;;;5030957;28;20513;-79
2021/05/25 11:35:03;;;;;;;6.07;5.40;;;10.70;99.90;;;;;;5052266;28;20425;-79
2021/05/25 11:37:34;;;;;;;8.17;6.50;;;11.00;99.90;;;;;;5053146;28;20422;-79
2021/05/25 11:40:02;;;;;;;7.90;6.40;;;11.40;99.90;;;;;;5044846;28;20458;-79
2021/05/25 11:42:31;;;;;;;10.30;6.27;;;11.80;99.90;;;;;;5053838;28;20480;-79
2021/05/25 11:44:58;;;;;;;6.97;6.00;;;12.30;99.90;;;;;;5052794;28;20484;-79
2021/05/25 11:47:25;;;;;;;6.40;5.63;;;12.70;99.90;;;;;;5052088;28;20829;-79
2021/05/25 11:49:55;;;;;;;10.37;6.83;;;12.90;99.90;;;;;;5052523;28;20905;-78
2021/05/25 11:52:28;;;;;;;9.97;6.37;;;13.10;99.90;;;;;;5032477;28;20471;-79
2021/05/25 11:55:03;;;;;;;10.07;5.93;;;13.30;99.90;;;;;;5053093;28;20433;-78
2021/05/25 11:57:33;;;;;;;7.63;5.57;;;13.60;99.90;;;;;;5047190;28;20876;-79
2021/05/25 12:00:09;;;;;;;7.13;6.30;;;14.00;99.90;;;;;;5052534;28;20507;-80
2021/05/25 12:02:43;;;;;;;9.93;6.80;;;14.10;99.90;;;;;;5045691;28;20864;-79
2021/05/25 12:05:11;;;;;;;8.53;6.00;;;14.10;99.90;;;;;;5032253;28;20432;-79
2021/05/25 12:07:40;;;;;;;10.03;6.87;;;14.10;99.90;;;;;;5045668;28;20725;-79
2021/05/25 12:10:09;;;;;;;6.10;5.50;;;14.10;99.90;;;;;;5039292;28;20462;-78
2021/05/25 12:12:39;;;;;;;7.07;6.47;;;14.10;99.90;;;;;;5035673;28;20486;-79
2021/05/25 12:15:19;;;;;;;6.33;5.67;;;14.00;99.90;;;;;;5052122;28;20428;-79
2021/05/25 12:17:51;;;;;;;5.07;4.57;;;13.90;99.90;;;;;;5052088;28;20435;-81
2021/05/25 12:20:22;;;;;;;6.17;3.80;;;13.60;99.90;;;;;;5051916;28;20443;-79
2021/05/25 12:22:53;;;;;;;4.90;3.30;;;13.20;99.90;;;;;;5051419;28;20491;-81
2021/05/25 12:25:24;;;;;;;7.60;3.90;;;12.70;99.90;;;;;;5035414;28;20815;-80
2021/05/25 12:28:11;;;;;;;3.37;2.83;;;12.30;99.90;;;;;;5051977;28;20452;-79
2021/05/25 12:30:44;;;;;;;3.10;2.83;;;12.00;99.90;;;;;;5034886;28;20513;-80
2021/05/25 12:33:21;;;;;;;3.97;3.10;;;11.80;99.90;;;;;;5051908;28;20470;-81
2021/05/25 12:35:48;;;;;;;2.90;2.60;;;11.60;99.90;;;;;;5050606;28;20489;-80
2021/05/25 12:38:16;;;;;;;4.37;2.60;;;11.40;99.90;;;;;;5045306;28;20425;-78
2021/05/25 12:40:56;;;;;;;2.60;2.40;;;11.40;99.90;;;;;;5052636;28;20426;-78
2021/05/25 12:43:24;;;;;;;3.80;2.80;;;11.30;99.90;;;;;;5051263;28;20556;-78
2021/05/25 12:45:54;;;;;;;5.20;3.17;;;11.30;99.90;;;;;;5051018;28;20982;-79
2021/05/25 12:48:34;;;;;;;3.60;2.70;;;11.20;99.90;;;;;;5047798;28;20415;-78
2021/05/25 12:51:00;;;;;;;4.17;2.77;;;11.20;99.90;;;;;;5051861;28;20805;-78
2021/05/25 12:53:25;;;;;;;3.10;2.90;;;11.30;99.90;;;;;;5052811;28;20500;-80
2021/05/25 12:55:51;;;;;;;3.53;2.20;;;11.30;99.90;;;;;;5051793;28;20737;-79
2021/05/25 12:58:59;;;;;;;5.63;2.90;;;11.20;99.90;;;;;;5034442;28;21105;-79
2021/05/25 13:01:41;;;;;;;5.70;2.70;;;11.40;99.90;;;;;;5014605;28;20470;-82
2021/05/25 13:04:12;;;;;;;3.83;2.70;;;11.50;99.90;;;;;;5019775;28;20509;-80
2021/05/25 13:06:54;;;;;;;4.07;2.57;;;11.50;99.90;;;;;;5052134;28;20449;-82
2021/05/25 13:09:34;;;;;;;2.47;2.00;;;11.60;99.90;;;;;;5034610;28;20434;-81
2021/05/25 13:12:12;;;;;;;3.03;2.30;;;11.80;99.90;;;;;;5034410;28;20466;-82
2021/05/25 13:14:41;;;;;;;4.03;3.30;;;11.80;99.90;;;;;;5035016;28;20442;-82
2021/05/25 13:17:14;;;;;;;2.30;2.03;;;11.90;99.90;;;;;;5035139;28;20474;-82
2021/05/25 13:19:43;;;;;;;4.43;2.87;;;12.00;99.90;;;;;;5035247;28;20446;-83